Date,TemperatureHighF,TemperatureAvgF,TemperatureLowF,DewpointHighF,DewpointAvgF,DewpointLowF,HumidityHigh,HumidityAvg,HumidityLow,PressureMaxIn,PressureMinIn,WindSpeedMaxMPH,WindSpeedAvgMPH,GustSpeedMaxMPH,PrecipitationSumIn
2013-9-1,74.4,71.9,70.1,72.6,70.9,69.1,99,97,94,29.90,29.83,9,5,13,0.26
2013-9-2,76.6,72.0,68.9,73.3,71.2,68.6,100,97,87,29.88,29.73,8,4,13,0.03
2013-9-3,77.6,70.6,65.8,73.4,69.6,62.5,100,97,86,29.83,29.70,7,3,9,0.77
2013-9-4,80.7,69.7,60.0,64.8,61.5,58.5,95,77,50,29.95,29.83,8,4,12,0.00
2013-9-5,75.2,66.2,54.1,65.2,61.0,52.7,95,84,58,30.13,29.89,11,4,13,0.00
2013-9-6,70.3,60.1,51.0,55.2,48.6,44.0,99,68,42,30.25,30.13,8,4,11,0.00
2013-9-7,73.5,63.9,52.9,59.6,54.1,48.6,88,72,46,30.13,29.90,11,5,20,0.00
2013-9-8,79.1,68.3,56.6,66.0,56.9,42.3,91,69,41,30.09,29.77,14,6,20,0.00
2013-9-9,66.2,59.1,49.5,54.5,48.5,42.1,81,68,52,30.25,30.09,7,4,11,0.00
2013-9-10,71.3,67.2,62.1,68.3,62.6,54.4,96,86,74,30.19,30.07,13,6,18,0.11
2013-9-11,86.1,73.9,67.5,77.5,70.4,66.9,99,90,70,30.11,30.00,8,5,14,0.00
2013-9-12,74.3,70.9,68.6,71.5,69.3,67.8,98,95,89,30.01,29.70,11,6,17,0.18
2013-9-13,75.9,69.6,63.3,70.8,66.6,58.9,100,90,71,29.75,29.59,9,4,12,0.10
2013-9-14,72.3,63.0,56.6,58.9,55.4,53.0,89,77,56,30.07,29.76,10,6,16,0.00
2013-9-15,68.0,60.0,52.1,57.0,53.1,49.5,93,79,61,30.18,30.07,9,4,10,0.00
2013-9-16,70.3,61.2,51.9,59.5,55.5,42.0,93,82,63,30.22,30.03,14,4,19,0.01
2013-9-17,62.6,52.5,43.4,44.3,40.3,36.7,91,65,39,30.41,30.22,13,8,19,0.00
2013-9-18,69.9,57.1,42.4,54.4,46.8,40.8,98,72,40,30.34,30.17,8,3,12,0.00
2013-9-19,73.7,62.8,51.7,58.7,54.9,49.8,94,77,51,30.17,30.06,8,3,10,0.00
2013-9-20,75.5,63.6,51.7,61.2,57.3,50.9,99,82,51,30.10,30.02,7,3,13,0.00
2013-9-21,72.6,66.0,56.9,66.6,62.9,56.0,99,90,78,30.05,29.76,12,6,16,0.00
2013-9-22,73.0,65.7,54.6,67.6,59.6,47.6,99,82,54,29.83,29.65,12,7,17,0.58
2013-9-23,67.1,57.1,49.7,49.5,45.3,41.5,81,66,49,30.01,29.83,14,8,19,0.00
2013-9-24,69.4,56.2,47.2,50.5,45.3,41.9,84,68,45,30.01,29.82,11,6,15,0.00
2013-9-25,70.6,57.9,46.4,53.6,49.3,44.5,96,75,51,29.97,29.88,10,3,13,0.00
2013-9-26,67.8,58.5,51.3,53.3,49.9,47.3,92,74,53,30.11,29.97,8,3,13,0.00
2013-9-27,66.8,58.6,47.7,55.6,52.1,45.9,95,80,61,30.26,30.10,10,5,17,0.00
2013-9-28,74.6,59.2,46.9,59.8,53.4,45.6,99,83,52,30.32,30.25,7,2,14,0.00
2013-9-29,71.7,57.8,45.7,56.7,51.4,44.7,99,82,49,30.25,30.10,7,2,9,0.00
2013-9-30,71.3,60.8,51.5,58.9,54.8,49.8,99,83,48,30.10,29.96,8,4,11,0.00